GLR weather

Gaylord Regional Airport
Gaylord, Michigan, United States

Public forecast

Using degrees Fahrenheit for public forecast. Weather courtesy of forecast.io.

Current aviation weather report (METAR) for Gaylord Regional Airport

Retrieved 2020/07/09 14:53 UTC (8 minutes ago):

KGLR 091453Z AUTO 20012KT 10SM CLR 29/21 A2992 RMK AO2 SLP120 T02890206 55006

Closest aviation forecast (TAF) to Gaylord Regional Airport

Closest forecast is Pellston Regional Airport of Emmet County Airport, 33.7 nm (62.4 km) N. Retrieved 2020/07/09 12:36 UTC (2 hours ago):

TAF KPLN 091133Z 0912/1012 VRB03KT P6SM VCSH BKN100 FM091400 VRB04KT P6SM SCT035 FM100000 VRB04KT P6SM VCTS BKN070CB FM100300 VRB03KT P6SM VCSH BKN100 FM100600 00000KT P6SM BKN090